sensor_id;sensor_type;location;lat;lon;timestamp;pressure;altitude;pressure_sealevel;temperature;humidity
37238;BME280;23129;49.662;8.448;2024-02-26T00:00:06;98808.78;;;7.58;100.00
37238;BME280;23129;49.662;8.448;2024-02-26T00:02:37;98820.16;;;7.57;100.00
37238;BME280;23129;49.662;8.448;2024-02-26T00:05:08;98814.16;;;7.55;100.00
37238;BME280;23129;49.662;8.448;2024-02-26T00:07:38;98815.06;;;7.54;100.00
37238;BME280;23129;49.662;8.448;2024-02-26T00:10:10;98818.56;;;7.53;100.00
37238;BME280;23129;49.662;8.448;2024-02-26T00:12:39;98811.66;;;7.52;100.00
37238;BME280;23129;49.662;8.448;2024-02-26T00:15:09;98799.47;;;7.52;100.00
37238;BME280;23129;49.662;8.448;2024-02-26T00:17:38;98805.53;;;7.53;100.00
37238;BME280;23129;49.662;8.448;2024-02-26T00:20:09;98802.78;;;7.56;100.00
37238;BME280;23129;49.662;8.448;2024-02-26T00:22:40;98794.06;;;7.57;100.00
37238;BME280;23129;49.662;8.448;2024-02-26T00:25:08;98798.28;;;7.60;100.00
37238;BME280;23129;49.662;8.448;2024-02-26T00:27:39;98793.06;;;7.60;100.00
37238;BME280;23129;49.662;8.448;2024-02-26T00:30:10;98794.81;;;7.59;100.00
37238;BME280;23129;49.662;8.448;2024-02-26T00:32:39;98800.13;;;7.58;100.00
37238;BME280;23129;49.662;8.448;2024-02-26T00:35:08;98775.81;;;7.57;100.00
37238;BME280;23129;49.662;8.448;2024-02-26T00:37:39;98778.53;;;7.54;100.00
37238;BME280;23129;49.662;8.448;2024-02-26T00:40:10;98818.56;;;7.53;100.00
37238;BME280;23129;49.662;8.448;2024-02-26T00:42:39;98802.16;;;7.51;100.00
37238;BME280;23129;49.662;8.448;2024-02-26T00:45:13;98789.94;;;7.51;100.00
37238;BME280;23129;49.662;8.448;2024-02-26T00:47:41;98787.25;;;7.53;100.00
37238;BME280;23129;49.662;8.448;2024-02-26T00:50:12;98804.63;;;7.54;100.00
37238;BME280;23129;49.662;8.448;2024-02-26T00:52:42;98795.88;;;7.55;100.00
37238;BME280;23129;49.662;8.448;2024-02-26T00:55:11;98802.78;;;7.56;100.00
37238;BME280;23129;49.662;8.448;2024-02-26T00:57:40;98812.31;;;7.57;100.00
37238;BME280;23129;49.662;8.448;2024-02-26T01:00:09;98808.00;;;7.56;100.00
37238;BME280;23129;49.662;8.448;2024-02-26T01:02:38;98815.19;;;7.51;100.00
37238;BME280;23129;49.662;8.448;2024-02-26T01:05:09;98816.16;;;7.48;100.00
37238;BME280;23129;49.662;8.448;2024-02-26T01:07:38;98817.97;;;7.46;100.00
37238;BME280;23129;49.662;8.448;2024-02-26T01:10:09;98818.94;;;7.44;100.00
37238;BME280;23129;49.662;8.448;2024-02-26T01:12:38;98825.22;;;7.40;100.00
37238;BME280;23129;49.662;8.448;2024-02-26T01:15:07;98824.38;;;7.39;100.00
37238;BME280;23129;49.662;8.448;2024-02-26T01:17:37;98819.22;;;7.38;100.00
37238;BME280;23129;49.662;8.448;2024-02-26T01:20:07;98816.69;;;7.36;100.00
37238;BME280;23129;49.662;8.448;2024-02-26T01:22:37;98827.94;;;7.37;100.00
37238;BME280;23129;49.662;8.448;2024-02-26T01:25:08;98815.81;;;7.36;100.00
37238;BME280;23129;49.662;8.448;2024-02-26T01:27:38;98828.78;;;7.37;100.00
37238;BME280;23129;49.662;8.448;2024-02-26T01:30:09;98817.53;;;7.37;100.00
37238;BME280;23129;49.662;8.448;2024-02-26T01:32:38;98836.63;;;7.37;100.00
37238;BME280;23129;49.662;8.448;2024-02-26T01:35:07;98834.84;;;7.38;100.00
37238;BME280;23129;49.662;8.448;2024-02-26T01:37:38;98845.28;;;7.38;100.00
37238;BME280;23129;49.662;8.448;2024-02-26T01:40:10;98842.69;;;7.38;100.00
37238;BME280;23129;49.662;8.448;2024-02-26T01:42:39;98841.13;;;7.34;100.00
37238;BME280;23129;49.662;8.448;2024-02-26T01:45:11;98844.63;;;7.32;100.00
37238;BME280;23129;49.662;8.448;2024-02-26T01:47:42;98840.44;;;7.28;100.00
37238;BME280;23129;49.662;8.448;2024-02-26T01:50:14;98850.03;;;7.28;100.00
37238;BME280;23129;49.662;8.448;2024-02-26T01:52:44;98851.78;;;7.27;100.00
37238;BME280;23129;49.662;8.448;2024-02-26T01:55:15;98857.91;;;7.26;100.00
37238;BME280;23129;49.662;8.448;2024-02-26T01:57:45;98863.25;;;7.23;100.00
37238;BME280;23129;49.662;8.448;2024-02-26T02:00:15;98866.81;;;7.21;100.00
37238;BME280;23129;49.662;8.448;2024-02-26T02:02:45;98861.69;;;7.19;100.00
37238;BME280;23129;49.662;8.448;2024-02-26T02:05:16;98866.94;;;7.18;100.00
37238;BME280;23129;49.662;8.448;2024-02-26T02:07:45;98866.16;;;7.16;100.00
37238;BME280;23129;49.662;8.448;2024-02-26T02:10:17;98863.59;;;7.14;100.00
37238;BME280;23129;49.662;8.448;2024-02-26T02:12:51;98865.31;;;7.15;100.00
37238;BME280;23129;49.662;8.448;2024-02-26T02:15:20;98860.09;;;7.15;100.00
37238;BME280;23129;49.662;8.448;2024-02-26T02:17:49;98858.28;;;7.17;100.00
37238;BME280;23129;49.662;8.448;2024-02-26T02:20:18;98865.19;;;7.18;100.00
37238;BME280;23129;49.662;8.448;2024-02-26T02:22:48;98878.13;;;7.21;100.00
37238;BME280;23129;49.662;8.448;2024-02-26T02:25:17;98863.25;;;7.23;100.00
37238;BME280;23129;49.662;8.448;2024-02-26T02:27:46;98865.81;;;7.25;100.00
37238;BME280;23129;49.662;8.448;2024-02-26T02:30:14;98867.44;;;7.27;100.00
37238;BME280;23129;49.662;8.448;2024-02-26T02:32:44;98866.41;;;7.31;100.00
37238;BME280;23129;49.662;8.448;2024-02-26T02:35:13;98868.97;;;7.33;100.00
37238;BME280;23129;49.662;8.448;2024-02-26T02:37:42;98881.00;;;7.36;100.00
37238;BME280;23129;49.662;8.448;2024-02-26T02:40:12;98879.31;;;7.35;100.00
37238;BME280;23129;49.662;8.448;2024-02-26T02:42:41;98884.59;;;7.33;100.00
37238;BME280;23129;49.662;8.448;2024-02-26T02:45:10;98876.16;;;7.26;100.00
37238;BME280;23129;49.662;8.448;2024-02-26T02:47:39;98884.22;;;7.20;100.00
37238;BME280;23129;49.662;8.448;2024-02-26T02:50:08;98878.41;;;7.14;100.00
37238;BME280;23129;49.662;8.448;2024-02-26T02:52:37;98875.19;;;7.07;100.00
37238;BME280;23129;49.662;8.448;2024-02-26T02:55:06;98871.97;;;7.00;100.00
37238;BME280;23129;49.662;8.448;2024-02-26T02:57:37;98878.31;;;6.93;100.00
37238;BME280;23129;49.662;8.448;2024-02-26T03:00:09;98869.91;;;6.86;100.00
37238;BME280;23129;49.662;8.448;2024-02-26T03:02:39;98883.97;;;6.82;100.00
37238;BME280;23129;49.662;8.448;2024-02-26T03:05:08;98886.72;;;6.78;100.00
37238;BME280;23129;49.662;8.448;2024-02-26T03:07:37;98878.97;;;6.76;100.00
37238;BME280;23129;49.662;8.448;2024-02-26T03:10:06;98882.66;;;6.71;100.00
37238;BME280;23129;49.662;8.448;2024-02-26T03:12:36;98873.25;;;6.67;100.00
37238;BME280;23129;49.662;8.448;2024-02-26T03:15:06;98883.78;;;6.63;100.00
37238;BME280;23129;49.662;8.448;2024-02-26T03:17:35;98886.44;;;6.62;100.00
37238;BME280;23129;49.662;8.448;2024-02-26T03:20:04;98887.41;;;6.59;100.00
37238;BME280;23129;49.662;8.448;2024-02-26T03:22:38;98890.06;;;6.58;100.00
37238;BME280;23129;49.662;8.448;2024-02-26T03:25:07;98888.47;;;6.54;100.00
37238;BME280;23129;49.662;8.448;2024-02-26T03:27:37;98883.38;;;6.51;100.00
37238;BME280;23129;49.662;8.448;2024-02-26T03:30:07;98884.34;;;6.48;100.00
37238;BME280;23129;49.662;8.448;2024-02-26T03:32:36;98885.19;;;6.49;100.00
37238;BME280;23129;49.662;8.448;2024-02-26T03:35:05;98891.31;;;6.48;100.00
37238;BME280;23129;49.662;8.448;2024-02-26T03:37:34;98882.59;;;6.49;100.00
37238;BME280;23129;49.662;8.448;2024-02-26T03:40:04;98880.84;;;6.49;100.00
37238;BME280;23129;49.662;8.448;2024-02-26T03:42:33;98891.19;;;6.51;100.00
37238;BME280;23129;49.662;8.448;2024-02-26T03:45:03;98883.38;;;6.51;100.00
37238;BME280;23129;49.662;8.448;2024-02-26T03:47:32;98882.47;;;6.52;100.00
37238;BME280;23129;49.662;8.448;2024-02-26T03:50:01;98882.44;;;6.53;100.00
37238;BME280;23129;49.662;8.448;2024-02-26T03:52:31;98882.34;;;6.55;100.00
37238;BME280;23129;49.662;8.448;2024-02-26T03:55:00;98872.84;;;6.54;100.00
37238;BME280;23129;49.662;8.448;2024-02-26T03:57:29;98878.06;;;6.54;100.00
37238;BME280;23129;49.662;8.448;2024-02-26T03:59:57;98878.06;;;6.54;100.00
37238;BME280;23129;49.662;8.448;2024-02-26T04:02:28;98878.97;;;6.53;100.00
37238;BME280;23129;49.662;8.448;2024-02-26T04:04:56;98881.59;;;6.53;100.00
37238;BME280;23129;49.662;8.448;2024-02-26T04:07:26;98885.03;;;6.53;100.00
37238;BME280;23129;49.662;8.448;2024-02-26T04:09:55;98878.97;;;6.53;100.00
37238;BME280;23129;49.662;8.448;2024-02-26T04:12:24;98877.22;;;6.53;100.00
37238;BME280;23129;49.662;8.448;2024-02-26T04:14:53;98873.78;;;6.53;100.00
37238;BME280;23129;49.662;8.448;2024-02-26T04:17:21;98877.16;;;6.55;100.00
37238;BME280;23129;49.662;8.448;2024-02-26T04:19:51;98869.34;;;6.55;100.00
37238;BME280;23129;49.662;8.448;2024-02-26T04:22:20;98869.34;;;6.55;100.00
37238;BME280;23129;49.662;8.448;2024-02-26T04:24:49;98869.34;;;6.55;100.00
37238;BME280;23129;49.662;8.448;2024-02-26T04:27:18;98876.25;;;6.56;100.00
37238;BME280;23129;49.662;8.448;2024-02-26T04:29:46;98876.25;;;6.56;100.00
37238;BME280;23129;49.662;8.448;2024-02-26T04:32:15;98866.72;;;6.55;100.00
37238;BME280;23129;49.662;8.448;2024-02-26T04:34:44;98865.00;;;6.55;100.00
37238;BME280;23129;49.662;8.448;2024-02-26T04:37:14;98870.22;;;6.55;100.00
37238;BME280;23129;49.662;8.448;2024-02-26T04:39:42;98859.78;;;6.55;100.00
37238;BME280;23129;49.662;8.448;2024-02-26T04:42:13;98863.16;;;6.57;100.00
37238;BME280;23129;49.662;8.448;2024-02-26T04:44:42;98868.34;;;6.59;100.00
37238;BME280;23129;49.662;8.448;2024-02-26T04:47:11;98855.31;;;6.59;100.00
37238;BME280;23129;49.662;8.448;2024-02-26T04:49:40;98857.00;;;6.60;100.00
37238;BME280;23129;49.662;8.448;2024-02-26T04:52:09;98860.41;;;6.62;100.00
37238;BME280;23129;49.662;8.448;2024-02-26T04:54:39;98855.19;;;6.62;100.00
37238;BME280;23129;49.662;8.448;2024-02-26T04:57:23;98857.72;;;6.63;100.00
37238;BME280;23129;49.662;8.448;2024-02-26T05:00:16;98860.28;;;6.65;100.00
37238;BME280;23129;49.662;8.448;2024-02-26T05:02:53;98856.78;;;6.66;100.00
37238;BME280;23129;49.662;8.448;2024-02-26T05:05:22;98860.22;;;6.67;100.00
37238;BME280;23129;49.662;8.448;2024-02-26T05:07:50;98858.47;;;6.67;100.00
37238;BME280;23129;49.662;8.448;2024-02-26T05:10:20;98854.97;;;6.68;100.00
37238;BME280;23129;49.662;8.448;2024-02-26T05:12:49;98853.19;;;6.69;100.00
37238;BME280;23129;49.662;8.448;2024-02-26T05:15:18;98854.03;;;6.69;100.00
37238;BME280;23129;49.662;8.448;2024-02-26T05:17:46;98853.19;;;6.69;100.00
37238;BME280;23129;49.662;8.448;2024-02-26T05:20:15;98856.66;;;6.69;100.00
37238;BME280;23129;49.662;8.448;2024-02-26T05:22:44;98857.50;;;6.70;100.00
37238;BME280;23129;49.662;8.448;2024-02-26T05:25:15;98855.81;;;6.69;100.00
37238;BME280;23129;49.662;8.448;2024-02-26T05:27:45;98846.22;;;6.69;100.00
37238;BME280;23129;49.662;8.448;2024-02-26T05:30:14;98854.97;;;6.68;100.00
37238;BME280;23129;49.662;8.448;2024-02-26T05:32:43;98851.56;;;6.66;100.00
37238;BME280;23129;49.662;8.448;2024-02-26T05:35:12;98851.56;;;6.66;100.00
37238;BME280;23129;49.662;8.448;2024-02-26T05:37:42;98849.88;;;6.65;100.00
37238;BME280;23129;49.662;8.448;2024-02-26T05:40:12;98849.88;;;6.65;100.00
37238;BME280;23129;49.662;8.448;2024-02-26T05:42:40;98854.25;;;6.65;100.00
37238;BME280;23129;49.662;8.448;2024-02-26T05:45:12;98856.78;;;6.66;100.00
37238;BME280;23129;49.662;8.448;2024-02-26T05:47:41;98861.97;;;6.66;100.00
37238;BME280;23129;49.662;8.448;2024-02-26T05:50:11;98861.97;;;6.66;100.00
37238;BME280;23129;49.662;8.448;2024-02-26T05:52:40;98859.38;;;6.66;100.00
37238;BME280;23129;49.662;8.448;2024-02-26T05:55:09;98855.06;;;6.65;100.00
37238;BME280;23129;49.662;8.448;2024-02-26T05:57:38;98859.38;;;6.66;100.00
37238;BME280;23129;49.662;8.448;2024-02-26T06:00:07;98863.69;;;6.67;100.00
37238;BME280;23129;49.662;8.448;2024-02-26T06:02:41;98868.03;;;6.67;100.00
37238;BME280;23129;49.662;8.448;2024-02-26T06:05:10;98878.41;;;6.68;100.00
37238;BME280;23129;49.662;8.448;2024-02-26T06:07:39;98878.41;;;6.68;100.00
37238;BME280;23129;49.662;8.448;2024-02-26T06:10:08;98887.06;;;6.69;100.00
37238;BME280;23129;49.662;8.448;2024-02-26T06:12:37;98894.84;;;6.70;100.00
37238;BME280;23129;49.662;8.448;2024-02-26T06:15:06;98887.91;;;6.69;100.00
37238;BME280;23129;49.662;8.448;2024-02-26T06:17:34;98898.34;;;6.69;100.00
37238;BME280;23129;49.662;8.448;2024-02-26T06:20:05;98899.19;;;6.70;100.00
37238;BME280;23129;49.662;8.448;2024-02-26T06:22:40;98900.06;;;6.70;100.00
37238;BME280;23129;49.662;8.448;2024-02-26T06:25:09;98913.97;;;6.69;100.00
37238;BME280;23129;49.662;8.448;2024-02-26T06:27:38;98916.53;;;6.71;100.00
37238;BME280;23129;49.662;8.448;2024-02-26T06:30:07;98924.28;;;6.72;100.00
37238;BME280;23129;49.662;8.448;2024-02-26T06:32:38;98924.28;;;6.72;100.00
37238;BME280;23129;49.662;8.448;2024-02-26T06:35:09;98934.69;;;6.72;100.00
37238;BME280;23129;49.662;8.448;2024-02-26T06:37:39;98934.69;;;6.72;100.00
37238;BME280;23129;49.662;8.448;2024-02-26T06:40:08;98938.09;;;6.74;100.00
37238;BME280;23129;49.662;8.448;2024-02-26T06:42:37;98941.50;;;6.76;100.00
37238;BME280;23129;49.662;8.448;2024-02-26T06:45:06;98946.66;;;6.78;100.00
37238;BME280;23129;49.662;8.448;2024-02-26T06:47:35;98953.50;;;6.80;100.00
37238;BME280;23129;49.662;8.448;2024-02-26T06:50:05;98958.59;;;6.83;100.00
37238;BME280;23129;49.662;8.448;2024-02-26T06:52:35;98972.44;;;6.85;100.00
37238;BME280;23129;49.662;8.448;2024-02-26T06:55:04;98976.69;;;6.88;100.00
37238;BME280;23129;49.662;8.448;2024-02-26T06:57:35;98970.50;;;6.91;100.00
37238;BME280;23129;49.662;8.448;2024-02-26T07:00:05;98968.69;;;6.93;100.00
37238;BME280;23129;49.662;8.448;2024-02-26T07:02:33;98980.69;;;6.97;100.00
37238;BME280;23129;49.662;8.448;2024-02-26T07:05:06;98992.84;;;6.98;100.00
37238;BME280;23129;49.662;8.448;2024-02-26T07:07:36;98977.94;;;7.01;100.00
37238;BME280;23129;49.662;8.448;2024-02-26T07:10:06;98987.41;;;7.04;100.00
37238;BME280;23129;49.662;8.448;2024-02-26T07:12:35;98989.94;;;7.05;100.00
37238;BME280;23129;49.662;8.448;2024-02-26T07:15:04;98983.75;;;7.08;100.00
37238;BME280;23129;49.662;8.448;2024-02-26T07:17:35;98981.03;;;7.11;100.00
37238;BME280;23129;49.662;8.448;2024-02-26T07:20:05;98979.16;;;7.15;100.00
37238;BME280;23129;49.662;8.448;2024-02-26T07:22:38;98985.13;;;7.18;100.00
37238;BME280;23129;49.662;8.448;2024-02-26T07:25:07;98986.72;;;7.22;100.00
37238;BME280;23129;49.662;8.448;2024-02-26T07:27:36;98983.94;;;7.27;100.00
37238;BME280;23129;49.662;8.448;2024-02-26T07:30:06;98982.94;;;7.29;100.00
37238;BME280;23129;49.662;8.448;2024-02-26T07:32:35;98994.13;;;7.33;100.00
37238;BME280;23129;49.662;8.448;2024-02-26T07:35:04;98989.66;;;7.37;100.00
37238;BME280;23129;49.662;8.448;2024-02-26T07:37:33;98990.38;;;7.40;100.00
37238;BME280;23129;49.662;8.448;2024-02-26T07:40:04;98992.88;;;7.43;100.00
37238;BME280;23129;49.662;8.448;2024-02-26T07:42:35;98992.75;;;7.46;100.00
37238;BME280;23129;49.662;8.448;2024-02-26T07:45:05;99002.13;;;7.50;100.00
37238;BME280;23129;49.662;8.448;2024-02-26T07:47:33;99008.13;;;7.54;100.00
37238;BME280;23129;49.662;8.448;2024-02-26T07:50:03;99009.69;;;7.58;100.00
37238;BME280;23129;49.662;8.448;2024-02-26T07:52:32;99009.56;;;7.61;100.00
37238;BME280;23129;49.662;8.448;2024-02-26T07:55:01;99007.63;;;7.66;100.00
37238;BME280;23129;49.662;8.448;2024-02-26T07:57:35;99011.00;;;7.68;100.00
37238;BME280;23129;49.662;8.448;2024-02-26T08:00:05;99002.16;;;7.72;100.00
37238;BME280;23129;49.662;8.448;2024-02-26T08:02:35;98995.06;;;7.76;100.00
37238;BME280;23129;49.662;8.448;2024-02-26T08:05:04;98999.25;;;7.80;100.00
37238;BME280;23129;49.662;8.448;2024-02-26T08:07:32;99001.69;;;7.85;100.00
37238;BME280;23129;49.662;8.448;2024-02-26T08:10:01;99015.41;;;7.90;100.00
37238;BME280;23129;49.662;8.448;2024-02-26T08:12:30;99015.28;;;7.93;100.00
37238;BME280;23129;49.662;8.448;2024-02-26T08:15:00;99014.28;;;7.95;100.00
37238;BME280;23129;49.662;8.448;2024-02-26T08:17:29;99015.09;;;7.97;100.00
37238;BME280;23129;49.662;8.448;2024-02-26T08:19:57;99016.72;;;8.00;100.00
37238;BME280;23129;49.662;8.448;2024-02-26T08:22:26;99014.91;;;8.02;100.00
37238;BME280;23129;49.662;8.448;2024-02-26T08:24:55;99025.34;;;8.02;100.00
37238;BME280;23129;49.662;8.448;2024-02-26T08:27:24;99032.19;;;8.05;100.00
37238;BME280;23129;49.662;8.448;2024-02-26T08:29:52;99027.75;;;8.07;100.00
37238;BME280;23129;49.662;8.448;2024-02-26T08:32:22;99020.66;;;8.10;100.00
37238;BME280;23129;49.662;8.448;2024-02-26T08:34:51;99019.63;;;8.14;100.00
37238;BME280;23129;49.662;8.448;2024-02-26T08:37:20;99025.50;;;8.19;100.00
37238;BME280;23129;49.662;8.448;2024-02-26T08:39:49;99032.22;;;8.25;100.00
37238;BME280;23129;49.662;8.448;2024-02-26T08:42:18;99029.44;;;8.30;100.00
37238;BME280;23129;49.662;8.448;2024-02-26T08:44:46;99031.13;;;8.31;100.00
37238;BME280;23129;49.662;8.448;2024-02-26T08:47:15;99029.19;;;8.36;100.00
37238;BME280;23129;49.662;8.448;2024-02-26T08:49:46;99021.97;;;8.42;100.00
37238;BME280;23129;49.662;8.448;2024-02-26T08:52:14;99027.66;;;8.52;100.00
37238;BME280;23129;49.662;8.448;2024-02-26T08:54:43;99017.47;;;8.66;100.00
37238;BME280;23129;49.662;8.448;2024-02-26T08:57:12;99027.13;;;8.85;100.00
37238;BME280;23129;49.662;8.448;2024-02-26T08:59:41;99030.69;;;9.03;100.00
37238;BME280;23129;49.662;8.448;2024-02-26T09:02:10;99027.19;;;9.23;100.00
37238;BME280;23129;49.662;8.448;2024-02-26T09:04:38;99027.63;;;9.32;100.00
37238;BME280;23129;49.662;8.448;2024-02-26T09:07:09;99027.34;;;9.38;100.00
37238;BME280;23129;49.662;8.448;2024-02-26T09:09:37;99021.13;;;9.41;100.00
37238;BME280;23129;49.662;8.448;2024-02-26T09:12:06;99018.44;;;9.43;100.00
37238;BME280;23129;49.662;8.448;2024-02-26T09:14:35;99020.97;;;9.44;100.00
37238;BME280;23129;49.662;8.448;2024-02-26T09:17:04;99033.13;;;9.45;100.00
37238;BME280;23129;49.662;8.448;2024-02-26T09:19:33;99027.91;;;9.45;100.00
37238;BME280;23129;49.662;8.448;2024-02-26T09:22:01;99033.13;;;9.45;100.00
37238;BME280;23129;49.662;8.448;2024-02-26T09:24:31;99039.38;;;9.43;100.00
37238;BME280;23129;49.662;8.448;2024-02-26T09:27:01;99035.25;;;9.37;100.00
37238;BME280;23129;49.662;8.448;2024-02-26T09:29:30;99042.31;;;9.35;100.00
37238;BME280;23129;49.662;8.448;2024-02-26T09:31:58;99045.03;;;9.33;100.00
37238;BME280;23129;49.662;8.448;2024-02-26T09:34:28;99053.78;;;9.32;100.00
37238;BME280;23129;49.662;8.448;2024-02-26T09:36:57;99051.16;;;9.32;100.00
37238;BME280;23129;49.662;8.448;2024-02-26T09:39:40;99054.63;;;9.33;100.00
37238;BME280;23129;49.662;8.448;2024-02-26T09:42:10;99058.03;;;9.35;100.00
37238;BME280;23129;49.662;8.448;2024-02-26T09:44:41;99060.59;;;9.36;100.00
37238;BME280;23129;49.662;8.448;2024-02-26T09:47:12;99065.75;;;9.38;100.00
37238;BME280;23129;49.662;8.448;2024-02-26T09:49:44;99056.19;;;9.37;100.00
37238;BME280;23129;49.662;8.448;2024-02-26T09:52:15;99061.44;;;9.37;100.00
37238;BME280;23129;49.662;8.448;2024-02-26T09:54:48;99056.19;;;9.37;100.00
37238;BME280;23129;49.662;8.448;2024-02-26T09:57:17;99059.38;;;9.44;100.00
37238;BME280;23129;49.662;8.448;2024-02-26T09:59:47;99061.72;;;9.50;100.00
37238;BME280;23129;49.662;8.448;2024-02-26T10:02:18;99066.75;;;9.54;100.00
37238;BME280;23129;49.662;8.448;2024-02-26T10:04:49;99074.47;;;9.57;100.00
37238;BME280;23129;49.662;8.448;2024-02-26T10:07:20;99079.47;;;9.62;100.00
37238;BME280;23129;49.662;8.448;2024-02-26T10:09:50;99075.88;;;9.65;100.00
37238;BME280;23129;49.662;8.448;2024-02-26T10:12:20;99071.34;;;9.68;100.00
37238;BME280;23129;49.662;8.448;2024-02-26T10:14:48;99072.91;;;9.72;100.00
37238;BME280;23129;49.662;8.448;2024-02-26T10:17:19;99067.44;;;9.77;100.00
37238;BME280;23129;49.662;8.448;2024-02-26T10:19:48;99073.38;;;9.80;100.00
37238;BME280;23129;49.662;8.448;2024-02-26T10:22:19;99082.06;;;9.81;100.00
37238;BME280;23129;49.662;8.448;2024-02-26T10:24:53;99083.78;;;9.82;100.00
37238;BME280;23129;49.662;8.448;2024-02-26T10:27:23;99083.66;;;9.85;100.00
37238;BME280;23129;49.662;8.448;2024-02-26T10:29:52;99087.16;;;9.84;100.00
37238;BME280;23129;49.662;8.448;2024-02-26T10:32:21;99081.81;;;9.87;100.00
37238;BME280;23129;49.662;8.448;2024-02-26T10:34:55;99079.06;;;9.90;100.00
37238;BME280;23129;49.662;8.448;2024-02-26T10:37:24;99072.44;;;10.00;100.00
37238;BME280;23129;49.662;8.448;2024-02-26T10:39:58;99073.69;;;10.11;100.00
37238;BME280;23129;49.662;8.448;2024-02-26T10:42:26;99075.56;;;10.26;100.00
37238;BME280;23129;49.662;8.448;2024-02-26T10:44:58;99078.88;;;10.48;100.00
37238;BME280;23129;49.662;8.448;2024-02-26T10:47:31;99078.28;;;10.78;100.00
37238;BME280;23129;49.662;8.448;2024-02-26T10:50:02;99094.91;;;11.12;100.00
37238;BME280;23129;49.662;8.448;2024-02-26T10:52:32;99091.28;;;11.48;100.00
37238;BME280;23129;49.662;8.448;2024-02-26T10:55:04;99099.53;;;11.73;100.00
37238;BME280;23129;49.662;8.448;2024-02-26T10:57:39;99094.38;;;11.87;100.00
37238;BME280;23129;49.662;8.448;2024-02-26T11:00:10;99097.72;;;11.91;100.00
37238;BME280;23129;49.662;8.448;2024-02-26T11:02:41;99090.50;;;11.95;100.00
37238;BME280;23129;49.662;8.448;2024-02-26T11:05:11;99098.97;;;12.16;100.00
37238;BME280;23129;49.662;8.448;2024-02-26T11:07:42;99097.72;;;12.53;100.00
37238;BME280;23129;49.662;8.448;2024-02-26T11:10:13;99097.69;;;12.99;100.00
37238;BME280;23129;49.662;8.448;2024-02-26T11:12:42;99093.97;;;13.46;100.00
37238;BME280;23129;49.662;8.448;2024-02-26T11:15:11;99101.28;;;13.69;100.00
37238;BME280;23129;49.662;8.448;2024-02-26T11:17:40;99098.06;;;13.93;100.00
37238;BME280;23129;49.662;8.448;2024-02-26T11:20:11;99089.16;;;14.23;100.00
37238;BME280;23129;49.662;8.448;2024-02-26T11:22:41;99091.00;;;14.48;100.00
37238;BME280;23129;49.662;8.448;2024-02-26T11:25:11;99089.31;;;14.74;100.00
37238;BME280;23129;49.662;8.448;2024-02-26T11:27:44;99100.56;;;14.90;100.00
37238;BME280;23129;49.662;8.448;2024-02-26T11:30:15;99101.63;;;14.88;100.00
37238;BME280;23129;49.662;8.448;2024-02-26T11:32:45;99096.41;;;14.73;100.00
37238;BME280;23129;49.662;8.448;2024-02-26T11:35:14;99102.50;;;14.61;100.00
37238;BME280;23129;49.662;8.448;2024-02-26T11:37:53;99093.66;;;14.48;100.00
37238;BME280;23129;49.662;8.448;2024-02-26T11:40:24;99096.59;;;14.43;100.00
37238;BME280;23129;49.662;8.448;2024-02-26T11:42:53;99097.41;;;14.31;100.00
37238;BME280;23129;49.662;8.448;2024-02-26T11:45:50;99089.84;;;14.39;100.00
37238;BME280;23129;49.662;8.448;2024-02-26T11:48:21;99095.22;;;14.65;100.00
37238;BME280;23129;49.662;8.448;2024-02-26T11:50:52;99100.56;;;14.90;100.00
37238;BME280;23129;49.662;8.448;2024-02-26T11:53:23;99099.84;;;15.14;100.00
37238;BME280;23129;49.662;8.448;2024-02-26T11:56:23;99095.72;;;15.35;100.00
37238;BME280;23129;49.662;8.448;2024-02-26T11:59:01;99105.88;;;15.41;100.00
37238;BME280;23129;49.662;8.448;2024-02-26T12:04:18;99110.31;;;15.28;100.00
37238;BME280;23129;49.662;8.448;2024-02-26T12:06:51;99109.03;;;15.21;100.00
37238;BME280;23129;49.662;8.448;2024-02-26T12:09:34;99109.47;;;15.15;100.00
37238;BME280;23129;49.662;8.448;2024-02-26T12:12:06;99106.69;;;15.03;100.00
37238;BME280;23129;49.662;8.448;2024-02-26T12:14:38;99107.31;;;14.94;100.00
37238;BME280;23129;49.662;8.448;2024-02-26T12:17:07;99109.41;;;14.89;100.00
37238;BME280;23129;49.662;8.448;2024-02-26T12:19:43;99111.75;;;14.81;100.00
37238;BME280;23129;49.662;8.448;2024-02-26T12:22:13;99105.16;;;14.74;100.00
37238;BME280;23129;49.662;8.448;2024-02-26T12:24:42;99112.00;;;14.64;100.00
37238;BME280;23129;49.662;8.448;2024-02-26T12:27:12;99110.56;;;14.45;100.00
37238;BME280;23129;49.662;8.448;2024-02-26T12:29:43;99120.31;;;14.30;100.00
37238;BME280;23129;49.662;8.448;2024-02-26T12:32:12;99126.47;;;14.16;100.00
37238;BME280;23129;49.662;8.448;2024-02-26T12:34:41;99114.81;;;14.06;100.00
37238;BME280;23129;49.662;8.448;2024-02-26T12:37:10;99124.69;;;14.03;100.00
37238;BME280;23129;49.662;8.448;2024-02-26T12:39:39;99135.53;;;13.98;100.00
37238;BME280;23129;49.662;8.448;2024-02-26T12:42:07;99136.69;;;13.94;100.00
37238;BME280;23129;49.662;8.448;2024-02-26T12:44:38;99134.31;;;13.89;100.00
37238;BME280;23129;49.662;8.448;2024-02-26T12:47:07;99126.69;;;13.99;100.00
37238;BME280;23129;49.662;8.448;2024-02-26T12:49:37;99127.38;;;14.30;100.00
37238;BME280;23129;49.662;8.448;2024-02-26T12:52:06;99127.59;;;14.81;100.00
37238;BME280;23129;49.662;8.448;2024-02-26T12:54:35;99129.09;;;15.49;100.00
37238;BME280;23129;49.662;8.448;2024-02-26T12:57:07;99124.56;;;16.26;100.00
37238;BME280;23129;49.662;8.448;2024-02-26T12:59:38;99122.50;;;17.02;100.00
37238;BME280;23129;49.662;8.448;2024-02-26T13:02:07;99124.78;;;17.75;100.00
37238;BME280;23129;49.662;8.448;2024-02-26T13:04:36;99114.38;;;18.29;100.00
37238;BME280;23129;49.662;8.448;2024-02-26T13:07:05;99120.28;;;18.64;100.00
37238;BME280;23129;49.662;8.448;2024-02-26T13:09:34;99117.97;;;19.03;100.00
37238;BME280;23129;49.662;8.448;2024-02-26T13:12:05;99118.88;;;19.13;100.00
37238;BME280;23129;49.662;8.448;2024-02-26T13:14:34;99122.63;;;19.11;100.00